createdAt,value
2019-05-15T00:01:54.478Z,97446.89
2019-05-15T00:04:21.057Z,97445.85
2019-05-15T00:06:48.627Z,97446.47
2019-05-15T00:09:15.621Z,97436.52
2019-05-15T00:11:42.331Z,97441.69
2019-05-15T00:14:09.201Z,97432.94
2019-05-15T00:16:38.418Z,97430.41
2019-05-15T00:19:04.262Z,97429.27
2019-05-15T00:21:31.066Z,97429.91
2019-05-15T00:23:58.651Z,97424.33
2019-05-15T00:26:25.908Z,97416.19
2019-05-15T00:28:52.654Z,97411.72
2019-05-15T00:31:19.533Z,97407.45
2019-05-15T00:33:48.173Z,97407.95
2019-05-15T00:36:14.450Z,97395.34
2019-05-15T00:38:41.132Z,97401.04
2019-05-15T00:41:09.395Z,97392.80
2019-05-15T00:43:38.491Z,97389.66
2019-05-15T00:46:05.404Z,97389.86
2019-05-15T00:48:32.203Z,97396.05
2019-05-15T00:50:59.050Z,97393.34
2019-05-15T00:53:28.100Z,97377.66
2019-05-15T00:55:54.286Z,97376.12
2019-05-15T00:58:21.159Z,97367.98
2019-05-15T01:00:48.661Z,97358.67
2019-05-15T01:03:18.051Z,97356.46
2019-05-15T01:05:44.141Z,97358.57
2019-05-15T01:08:11.126Z,97355.33
2019-05-15T01:10:38.721Z,97354.61
2019-05-15T01:13:07.757Z,97348.02
2019-05-15T01:15:33.908Z,97345.48
2019-05-15T01:18:00.553Z,97340.20
2019-05-15T01:20:28.582Z,97350.88
2019-05-15T01:22:55.614Z,97340.78
2019-05-15T01:25:22.579Z,97344.36
2019-05-15T01:27:49.775Z,97344.95
2019-05-15T01:30:17.973Z,97335.56
2019-05-15T01:32:45.163Z,97338.52
2019-05-15T01:35:11.765Z,97329.88
2019-05-15T01:40:11.583Z,97331.58
2019-05-15T01:42:38.807Z,97336.55
2019-05-15T01:45:08.372Z,97334.11
2019-05-15T01:47:34.979Z,97337.61
2019-05-15T01:50:02.115Z,97328.00
2019-05-15T01:52:28.771Z,97327.58
2019-05-15T01:54:58.102Z,97316.52
2019-05-15T01:57:23.943Z,97304.03
2019-05-15T01:59:57.023Z,97312.56
2019-05-15T02:02:19.085Z,97308.58
2019-05-15T02:04:48.431Z,97295.88
2019-05-15T02:07:14.136Z,97307.11
2019-05-15T02:09:40.789Z,97307.20
2019-05-15T02:12:09.557Z,97302.44
2019-05-15T02:14:39.023Z,97310.57
2019-05-15T02:17:08.504Z,97303.06
2019-05-15T02:19:39.009Z,97297.59
2019-05-15T02:22:03.488Z,97300.23
2019-05-15T02:24:30.366Z,97288.72
2019-05-15T02:26:58.812Z,97296.64
2019-05-15T02:29:28.981Z,97295.63
2019-05-15T02:31:58.838Z,97287.25
2019-05-15T02:34:23.941Z,97289.70
2019-05-15T02:36:51.072Z,97293.66
2019-05-15T02:39:19.204Z,97289.19
2019-05-15T02:41:49.098Z,97287.84
2019-05-15T02:44:19.940Z,97287.32
2019-05-15T02:46:49.714Z,97285.77
2019-05-15T02:49:15.003Z,97287.64
2019-05-15T02:51:41.855Z,97287.18
2019-05-15T02:54:10.193Z,97276.81
2019-05-15T02:56:39.279Z,97267.50
2019-05-15T02:59:09.009Z,97264.75
2019-05-15T03:01:33.975Z,97262.58
2019-05-15T03:04:00.954Z,97262.06
2019-05-15T03:06:29.807Z,97273.14
2019-05-15T03:08:59.584Z,97277.91
2019-05-15T03:11:24.783Z,97274.59
2019-05-15T03:13:51.406Z,97269.15
2019-05-15T03:16:19.401Z,97269.36
2019-05-15T03:18:46.350Z,97263.23
2019-05-15T03:21:13.385Z,97252.70
2019-05-15T03:23:40.611Z,97261.57
2019-05-15T03:26:08.818Z,97262.13
2019-05-15T03:28:38.803Z,97265.44
2019-05-15T03:31:30.446Z,97262.86
2019-05-15T03:33:36.211Z,97244.63
2019-05-15T03:36:03.332Z,97255.52
2019-05-15T03:38:30.211Z,97262.22
2019-05-15T03:40:59.536Z,97258.00
2019-05-15T03:43:25.334Z,97251.20
2019-05-15T03:45:52.127Z,97258.91
2019-05-15T03:48:19.640Z,97257.52
2019-05-15T03:50:48.900Z,97252.97
2019-05-15T03:53:15.242Z,97257.98
2019-05-15T03:55:41.893Z,97254.71
2019-05-15T03:58:09.865Z,97254.78
2019-05-15T04:00:39.518Z,97254.14
2019-05-15T04:03:05.166Z,97249.50
2019-05-15T04:05:32.074Z,97252.48
2019-05-15T04:08:00.143Z,97260.77
2019-05-15T04:10:28.815Z,97260.67
2019-05-15T04:12:56.128Z,97250.10
2019-05-15T04:15:22.912Z,97249.54
2019-05-15T04:17:49.733Z,97242.66
2019-05-15T04:20:19.850Z,97240.33
2019-05-15T04:22:44.752Z,97238.70
2019-05-15T04:25:11.601Z,97240.41
2019-05-15T04:27:39.106Z,97246.71
2019-05-15T04:30:06.113Z,97243.45
2019-05-15T04:32:32.708Z,97244.41
2019-05-15T04:34:59.640Z,97244.02
2019-05-15T04:37:29.644Z,97242.77
2019-05-15T04:39:54.558Z,97235.16
2019-05-15T04:42:21.449Z,97240.64
2019-05-15T04:44:49.458Z,97240.89
2019-05-15T04:47:19.213Z,97244.89
2019-05-15T04:49:44.780Z,97244.95
2019-05-15T04:52:11.518Z,97231.64
2019-05-15T04:54:40.251Z,97236.36
2019-05-15T04:57:09.285Z,97225.98
2019-05-15T04:59:38.716Z,97229.00
2019-05-15T05:02:17.025Z,97217.13
2019-05-15T05:04:33.325Z,97225.05
2019-05-15T05:06:59.945Z,97229.06
2019-05-15T05:09:28.863Z,97227.03
2019-05-15T05:11:55.243Z,97233.26
2019-05-15T05:14:21.837Z,97238.02
2019-05-15T05:16:49.038Z,97239.38
2019-05-15T05:19:15.824Z,97246.01
2019-05-15T05:21:42.450Z,97242.36
2019-05-15T05:24:09.063Z,97241.90
2019-05-15T05:26:38.058Z,97241.89
2019-05-15T05:29:03.984Z,97236.05
2019-05-15T05:31:30.733Z,97245.44
2019-05-15T05:33:57.792Z,97242.64
2019-05-15T05:36:24.426Z,97240.63
2019-05-15T05:38:51.310Z,97241.79
2019-05-15T05:41:18.948Z,97238.87
2019-05-15T05:43:45.672Z,97239.05
2019-05-15T05:46:12.243Z,97241.83
2019-05-15T05:48:39.204Z,97242.56
2019-05-15T05:51:05.834Z,97236.95
2019-05-15T05:53:32.428Z,97235.28
2019-05-15T05:55:59.528Z,97240.25
2019-05-15T05:58:26.131Z,97243.97
2019-05-15T06:00:52.725Z,97247.80
2019-05-15T06:03:20.028Z,97255.15
2019-05-15T06:05:49.137Z,97251.77
2019-05-15T06:08:15.044Z,97244.63
2019-05-15T06:10:41.618Z,97247.98
2019-05-15T06:13:08.825Z,97247.63
2019-05-15T06:15:37.846Z,97248.11
2019-05-15T06:18:04.105Z,97249.83
2019-05-15T06:20:30.912Z,97244.27
2019-05-15T06:22:58.286Z,97243.95
2019-05-15T06:25:24.914Z,97240.59
2019-05-15T06:27:51.508Z,97242.23
2019-05-15T06:30:21.885Z,97237.25
2019-05-15T06:33:01.947Z,97238.53
2019-05-15T06:35:15.166Z,97238.28
2019-05-15T06:37:42.051Z,97242.54
2019-05-15T06:40:09.015Z,97243.92
2019-05-15T06:42:35.811Z,97239.20
2019-05-15T06:45:02.668Z,97249.86
2019-05-15T06:47:29.434Z,97252.91
2019-05-15T06:49:58.001Z,97259.39
2019-05-15T06:52:24.626Z,97252.55
2019-05-15T06:54:52.249Z,97255.13
2019-05-15T06:57:18.982Z,97253.22
2019-05-15T06:59:45.843Z,97257.78
2019-05-15T07:02:13.149Z,97247.98
2019-05-15T07:04:39.814Z,97251.08
2019-05-15T07:07:10.948Z,97254.88
2019-05-15T07:09:37.872Z,97253.05
2019-05-15T07:12:04.265Z,97256.38
2019-05-15T07:14:33.813Z,97260.91
2019-05-15T07:17:03.040Z,97259.42
2019-05-15T07:19:29.775Z,97258.07
2019-05-15T07:21:59.684Z,97255.75
2019-05-15T07:24:28.772Z,97258.75
2019-05-15T07:26:54.813Z,97254.97
2019-05-15T07:29:21.490Z,97253.55
2019-05-15T07:31:48.766Z,97249.77
2019-05-15T07:34:23.308Z,97253.84
2019-05-15T07:36:53.602Z,97248.98
2019-05-15T07:39:21.767Z,97247.88
2019-05-15T07:41:48.508Z,97242.00
2019-05-15T07:44:15.406Z,97248.95
2019-05-15T07:46:42.288Z,97240.08
2019-05-15T07:49:09.274Z,97240.31
2019-05-15T07:51:38.015Z,97246.94
2019-05-15T07:54:04.641Z,97237.95
2019-05-15T07:56:31.551Z,97234.86
2019-05-15T07:58:58.725Z,97233.85
2019-05-15T08:01:25.812Z,97224.05
2019-05-15T08:04:09.280Z,97229.23
2019-05-15T08:06:24.113Z,97220.97
2019-05-15T08:08:49.256Z,97213.13
2019-05-15T08:11:20.645Z,97216.42
2019-05-15T08:13:44.225Z,97223.26
2019-05-15T08:16:11.460Z,97218.69
2019-05-15T08:18:39.434Z,97216.73
2019-05-15T08:21:08.792Z,97217.95
2019-05-15T08:23:35.025Z,97216.20
2019-05-15T08:26:02.203Z,97222.77
2019-05-15T08:28:29.060Z,97225.11
2019-05-15T08:30:58.106Z,97215.11
2019-05-15T08:33:24.063Z,97214.95
2019-05-15T08:35:51.839Z,97215.23
2019-05-15T08:38:19.094Z,97215.23
2019-05-15T08:40:45.793Z,97219.06
2019-05-15T08:43:12.415Z,97221.34
2019-05-15T08:45:42.338Z,97217.27
2019-05-15T08:48:09.447Z,97221.39
2019-05-15T08:50:38.891Z,97221.31
2019-05-15T08:53:04.769Z,97207.73
2019-05-15T08:55:31.507Z,97206.53
2019-05-15T08:58:06.631Z,97209.33
2019-05-15T09:00:29.447Z,97209.52
2019-05-15T09:02:58.131Z,97199.70
2019-05-15T09:05:23.951Z,97199.61
2019-05-15T09:07:50.686Z,97197.75
2019-05-15T09:10:18.448Z,97201.27
2019-05-15T09:12:45.485Z,97191.87
2019-05-15T09:17:48.797Z,97189.92
2019-05-15T09:20:15.622Z,97191.09
2019-05-15T09:22:42.242Z,97186.20
2019-05-15T09:25:09.143Z,97184.33
2019-05-15T09:27:38.102Z,97175.92
2019-05-15T09:30:20.000Z,97182.53
2019-05-15T09:32:48.477Z,97184.77
2019-05-15T09:35:15.056Z,97172.66
2019-05-15T09:37:41.961Z,97175.63
2019-05-15T09:40:09.360Z,97173.25
2019-05-15T09:42:38.737Z,97174.30
2019-05-15T09:45:05.226Z,97172.22
2019-05-15T09:47:32.765Z,97163.48
2019-05-15T09:49:59.464Z,97163.97
2019-05-15T09:52:26.079Z,97166.64
2019-05-15T09:54:53.237Z,97166.67
2019-05-15T09:57:19.929Z,97164.98
2019-05-15T09:59:48.799Z,97164.09
2019-05-15T10:02:15.135Z,97160.81
2019-05-15T10:04:43.262Z,97153.77
2019-05-15T10:07:10.107Z,97150.06
2019-05-15T10:09:41.765Z,97147.55
2019-05-15T10:12:09.249Z,97143.03
2019-05-15T10:14:38.615Z,97145.50
2019-05-15T10:22:10.110Z,97144.72
2019-05-15T10:24:36.957Z,97139.66
2019-05-15T10:27:03.806Z,97140.47
2019-05-15T10:29:31.539Z,97158.66
2019-05-15T10:31:58.366Z,97133.91
2019-05-15T10:34:25.975Z,97139.66
2019-05-15T10:36:52.860Z,97145.33
2019-05-15T10:39:19.739Z,97143.01
2019-05-15T10:41:48.226Z,97139.41
2019-05-15T10:44:17.986Z,97132.72
2019-05-15T10:46:43.770Z,97139.41
2019-05-15T10:49:12.007Z,97132.88
2019-05-15T10:51:39.741Z,97135.86
2019-05-15T10:54:08.595Z,97133.98
2019-05-15T10:56:34.958Z,97136.79
2019-05-15T10:59:02.183Z,97135.55
2019-05-15T11:01:29.299Z,97137.78
2019-05-15T11:03:58.667Z,97122.56
2019-05-15T11:06:24.662Z,97135.53
2019-05-15T11:08:51.700Z,97133.48
2019-05-15T11:11:18.771Z,97134.63
2019-05-15T11:13:45.704Z,97129.23
2019-05-15T11:16:13.603Z,97131.20
2019-05-15T11:18:40.403Z,97128.23
2019-05-15T11:21:08.252Z,97132.91
2019-05-15T11:23:35.015Z,97128.27
2019-05-15T11:26:01.672Z,97130.72
2019-05-15T11:28:31.959Z,97130.92
2019-05-15T11:30:59.459Z,97131.74
2019-05-15T11:33:25.461Z,97120.86
2019-05-15T11:36:00.901Z,97132.97
2019-05-15T11:38:20.724Z,97140.52
2019-05-15T11:40:47.404Z,97134.14
2019-05-15T11:43:14.075Z,97137.59
2019-05-15T11:45:40.949Z,97139.67
2019-05-15T11:48:09.001Z,97133.93
2019-05-15T11:50:35.936Z,97135.53
2019-05-15T11:53:02.877Z,97136.48
2019-05-15T11:55:29.489Z,97134.52
2019-05-15T11:57:59.248Z,97137.13
2019-05-15T12:00:27.210Z,97142.45
2019-05-15T12:02:53.671Z,97139.95
2019-05-15T12:05:20.549Z,97135.79
2019-05-15T12:07:47.893Z,97138.69
2019-05-15T12:10:14.988Z,97148.45
2019-05-15T12:12:42.426Z,97140.73
2019-05-15T12:15:09.090Z,97135.87
2019-05-15T12:17:35.908Z,97140.88
2019-05-15T12:20:06.215Z,97142.50
2019-05-15T12:22:32.573Z,97145.69
2019-05-15T12:25:00.429Z,97134.07
2019-05-15T12:27:28.408Z,97144.08
2019-05-15T12:29:55.351Z,97140.36
2019-05-15T12:32:30.062Z,97139.56
2019-05-15T12:34:52.326Z,97142.39
2019-05-15T12:37:19.863Z,97144.42
2019-05-15T12:39:49.155Z,97134.59
2019-05-15T13:00:15.345Z,97164.45
2019-05-15T13:02:39.934Z,97163.63
2019-05-15T13:05:09.787Z,97163.06
2019-05-15T13:07:58.046Z,97168.63
2019-05-15T13:10:28.786Z,97173.08
2019-05-15T13:13:04.958Z,97175.67
2019-05-15T13:15:28.186Z,97167.83
2019-05-15T13:18:03.549Z,97173.95
2019-05-15T13:20:35.095Z,97177.53
2019-05-15T13:23:04.362Z,97170.22
2019-05-15T13:25:32.982Z,97172.53
2019-05-15T13:28:08.769Z,97173.52
2019-05-15T13:30:41.270Z,97177.38
2019-05-15T13:33:05.930Z,97179.05
2019-05-15T13:35:37.913Z,97185.50
2019-05-15T13:38:14.156Z,97188.68
2019-05-15T13:40:42.721Z,97181.86
2019-05-15T13:43:14.260Z,97186.88
2019-05-15T13:48:34.768Z,97195.30
2019-05-15T13:51:06.210Z,97202.03
2019-05-15T13:53:30.491Z,97204.09
2019-05-15T13:56:02.235Z,97206.32
2019-05-15T13:58:38.743Z,97210.63
2019-05-15T14:01:01.629Z,97205.70
2019-05-15T14:03:38.874Z,97209.64
2019-05-15T14:06:09.443Z,97212.05
2019-05-15T14:08:44.091Z,97216.12
2019-05-15T14:13:43.596Z,97205.63
2019-05-15T14:16:19.253Z,97208.91
2019-05-15T14:18:48.001Z,97204.09
2019-05-15T14:21:20.380Z,97207.64
2019-05-15T14:23:57.729Z,97209.98
2019-05-15T14:26:25.512Z,97213.79
2019-05-15T14:28:54.187Z,97215.64
2019-05-15T14:31:22.719Z,97205.69
2019-05-15T14:34:58.360Z,97218.17
2019-05-15T14:53:12.203Z,97229.78
2019-05-15T14:55:43.903Z,97239.52
2019-05-15T14:58:08.279Z,97237.39
2019-05-15T15:00:35.285Z,97239.80
2019-05-15T15:03:02.064Z,97238.64
2019-05-15T15:05:28.836Z,97236.29
2019-05-15T15:07:58.357Z,97246.16
2019-05-15T15:10:24.168Z,97235.80
2019-05-15T15:12:51.065Z,97241.48
2019-05-15T15:15:18.080Z,97240.72
2019-05-15T15:17:45.017Z,97235.30
2019-05-15T15:20:11.604Z,97236.45
2019-05-15T15:22:39.459Z,97232.33
2019-05-15T15:25:09.939Z,97234.53
2019-05-15T15:27:38.679Z,97232.77
2019-05-15T15:30:05.379Z,97228.34
2019-05-15T15:32:32.044Z,97230.25
2019-05-15T15:34:58.854Z,97234.50
2019-05-15T15:37:25.506Z,97230.77
2019-05-15T15:42:28.494Z,97235.84
2019-05-15T15:44:54.894Z,97245.38
2019-05-15T15:47:21.478Z,97237.11
2019-05-15T15:52:23.089Z,97240.38
2019-05-15T15:54:50.954Z,97237.70
2019-05-15T15:57:19.209Z,97238.79
2019-05-15T15:59:49.087Z,97243.94
2019-05-15T16:02:16.049Z,97246.52
2019-05-15T16:04:42.862Z,97245.69
2019-05-15T16:09:44.079Z,97246.22
2019-05-15T16:12:11.134Z,97250.52
2019-05-15T16:14:38.131Z,97245.31
2019-05-15T16:17:08.583Z,97251.01
2019-05-15T16:19:38.333Z,97247.38
2019-05-15T16:22:04.589Z,97242.73
2019-05-15T16:27:05.747Z,97240.03
2019-05-15T16:29:32.482Z,97243.43
2019-05-15T16:31:59.093Z,97240.03
2019-05-15T16:34:28.551Z,97243.25
2019-05-15T16:36:55.426Z,97245.42
2019-05-15T16:39:22.009Z,97246.92
2019-05-15T16:41:51.190Z,97244.81
2019-05-15T16:44:17.952Z,97249.53
2019-05-15T16:46:47.983Z,97246.36
2019-05-15T16:49:18.716Z,97248.91
2019-05-15T16:51:49.002Z,97253.20
2019-05-15T16:54:14.837Z,97258.95
2019-05-15T16:56:43.295Z,97256.51
2019-05-15T16:59:09.904Z,97262.38
2019-05-15T17:01:39.177Z,97255.73
2019-05-15T17:04:08.603Z,97260.81
2019-05-15T17:06:35.477Z,97261.50
2019-05-15T17:09:02.098Z,97257.82
2019-05-15T17:11:32.395Z,97263.77
2019-05-15T17:13:59.422Z,97264.72
2019-05-15T17:16:26.326Z,97261.19
2019-05-15T17:18:58.143Z,97272.01
2019-05-15T17:21:28.269Z,97266.95
2019-05-15T17:23:54.238Z,97267.98
2019-05-15T17:26:22.381Z,97269.94
2019-05-15T17:28:49.227Z,97271.20
2019-05-15T17:31:17.965Z,97268.84
2019-05-15T17:33:48.949Z,97280.35
2019-05-15T17:36:18.457Z,97277.97
2019-05-15T17:38:44.444Z,97281.42
2019-05-15T17:41:13.316Z,97279.75
2019-05-15T17:43:39.904Z,97285.34
2019-05-15T17:46:08.703Z,97289.56
2019-05-15T17:48:38.811Z,97286.08
2019-05-15T17:51:05.620Z,97283.34
2019-05-15T17:53:34.113Z,97285.72
2019-05-15T17:56:02.389Z,97296.03
2019-05-15T17:58:29.023Z,97293.16
2019-05-15T18:00:55.932Z,97292.59
2019-05-15T18:03:28.753Z,97295.27
2019-05-15T18:05:55.881Z,97297.34
2019-05-15T18:08:22.474Z,97293.54
2019-05-15T18:10:51.191Z,97301.66
2019-05-15T18:13:17.780Z,97305.17
2019-05-15T18:15:45.381Z,97298.99
2019-05-15T18:28:31.421Z,97313.98
2019-05-15T18:30:58.817Z,97316.27
2019-05-15T18:33:27.860Z,97330.02
2019-05-15T18:35:57.934Z,97331.61
2019-05-15T18:38:23.980Z,97328.80
2019-05-15T18:40:50.817Z,97325.98
2019-05-15T18:45:51.493Z,97302.37
2019-05-15T18:51:21.238Z,97289.11
2019-05-15T18:53:33.467Z,97296.68
2019-05-15T18:56:00.250Z,97290.78
2019-05-15T18:58:26.827Z,97299.33
2019-05-15T19:00:58.786Z,97303.91
2019-05-15T19:03:27.764Z,97302.23
2019-05-15T19:05:53.917Z,97296.97
2019-05-15T19:08:22.173Z,97295.44
2019-05-15T19:10:48.764Z,97298.00
2019-05-15T19:13:15.537Z,97294.92
2019-05-15T19:15:48.360Z,97303.33
2019-05-15T19:18:15.180Z,97303.44
2019-05-15T19:20:41.865Z,97302.33
2019-05-15T19:28:18.743Z,97307.75
2019-05-15T19:30:44.888Z,97311.72
2019-05-15T19:33:11.476Z,97310.77
2019-05-15T19:35:40.838Z,97307.78
2019-05-15T19:38:07.611Z,97312.48
2019-05-15T19:40:34.204Z,97317.69
2019-05-15T19:43:04.029Z,97316.41
2019-05-15T19:45:30.741Z,97316.20
2019-05-15T19:47:58.698Z,97311.45
2019-05-15T19:50:29.346Z,97315.89
2019-05-15T19:52:56.200Z,97311.33
2019-05-15T19:55:25.231Z,97308.04
2019-05-15T19:57:55.136Z,97302.45
2019-05-15T20:00:21.718Z,97305.85
2019-05-15T20:02:48.648Z,97304.77
2019-05-15T20:05:18.952Z,97306.89
2019-05-15T20:07:47.869Z,97310.98
2019-05-15T20:10:14.537Z,97305.97
2019-05-15T20:12:45.078Z,97301.66
2019-05-15T20:15:11.754Z,97301.31
2019-05-15T20:17:38.740Z,97297.75
2019-05-15T20:20:08.682Z,97296.51
2019-05-15T20:22:37.536Z,97293.55
2019-05-15T20:25:04.286Z,97293.66
2019-05-15T20:27:32.964Z,97286.38
2019-05-15T20:29:59.809Z,97292.95
2019-05-15T20:32:27.855Z,97291.02
2019-05-15T20:40:01.623Z,97290.25
2019-05-15T20:42:28.388Z,97293.77
2019-05-15T20:44:55.084Z,97287.87
2019-05-15T20:47:28.005Z,97287.42
2019-05-15T20:49:54.319Z,97282.87
2019-05-15T20:52:21.845Z,97290.38
2019-05-15T20:54:49.993Z,97278.70
2019-05-15T20:57:16.853Z,97282.35
2019-05-15T20:59:43.442Z,97278.66
2019-05-15T21:02:12.070Z,97283.59
2019-05-15T21:04:38.668Z,97281.17
2019-05-15T21:07:05.529Z,97281.65
2019-05-15T21:09:34.645Z,97289.33
2019-05-15T21:12:01.227Z,97289.83
2019-05-15T21:14:28.111Z,97295.67
2019-05-15T21:16:58.856Z,97302.84
2019-05-15T21:19:25.102Z,97292.42
2019-05-15T21:21:52.010Z,97300.28
2019-05-15T21:24:21.452Z,97306.29
2019-05-15T21:26:48.844Z,97309.70
2019-05-15T21:29:15.605Z,97307.20
2019-05-15T21:31:49.034Z,97307.20
2019-05-15T21:34:15.419Z,97309.34
2019-05-15T21:36:42.079Z,97308.81
2019-05-15T21:39:10.145Z,97308.95
2019-05-15T21:41:38.705Z,97309.25
2019-05-15T21:44:05.505Z,97307.47
2019-05-15T21:46:34.269Z,97300.81
2019-05-15T21:49:00.953Z,97306.73
2019-05-15T21:51:28.110Z,97304.88
2019-05-15T21:54:01.275Z,97311.58
2019-05-15T21:56:27.975Z,97310.44
2019-05-15T21:58:54.622Z,97310.59
2019-05-15T22:01:28.689Z,97304.49
2019-05-15T22:03:55.457Z,97306.53
2019-05-15T22:06:22.161Z,97310.48
2019-05-15T22:08:52.464Z,97304.15
2019-05-15T22:11:21.926Z,97308.02
2019-05-15T22:13:49.153Z,97305.95
2019-05-15T22:16:18.410Z,97307.70
2019-05-15T22:18:45.150Z,97299.77
2019-05-15T22:21:12.145Z,97304.63
2019-05-15T22:23:40.648Z,97297.61
2019-05-15T22:26:07.251Z,97298.21
2019-05-15T22:28:34.127Z,97287.16
2019-05-15T22:31:04.288Z,97284.55
2019-05-15T22:33:30.986Z,97273.46
2019-05-15T22:35:59.272Z,97271.52
2019-05-15T22:38:28.572Z,97265.95
2019-05-15T22:40:55.258Z,97268.53
2019-05-15T22:43:21.841Z,97274.49
2019-05-15T22:45:49.924Z,97269.22
2019-05-15T22:48:18.276Z,97268.04
2019-05-15T22:50:45.148Z,97261.06
2019-05-15T22:53:13.891Z,97258.51
2019-05-15T22:55:40.767Z,97260.19
2019-05-15T22:58:08.727Z,97253.59
2019-05-15T23:00:39.276Z,97257.60
2019-05-15T23:03:08.222Z,97254.12
2019-05-15T23:05:34.876Z,97263.27
2019-05-15T23:08:03.046Z,97260.39
2019-05-15T23:10:29.895Z,97277.78
2019-05-15T23:12:58.092Z,97272.58
2019-05-15T23:15:28.146Z,97276.50
2019-05-15T23:17:54.908Z,97277.96
2019-05-15T23:20:21.662Z,97272.58
2019-05-15T23:22:51.074Z,97275.27
2019-05-15T23:25:18.234Z,97272.99
2019-05-15T23:27:45.095Z,97270.55
2019-05-15T23:30:13.732Z,97276.64
2019-05-15T23:32:40.588Z,97273.33
2019-05-15T23:35:07.418Z,97277.68
2019-05-15T23:37:35.825Z,97267.21
2019-05-15T23:40:02.419Z,97267.35
2019-05-15T23:42:29.463Z,97262.28
2019-05-15T23:45:01.649Z,97259.34
2019-05-15T23:47:28.662Z,97257.61
2019-05-15T23:49:57.762Z,97252.13
2019-05-15T23:52:27.576Z,97252.42
2019-05-15T23:54:54.450Z,97253.31
2019-05-15T23:57:21.033Z,97250.63
2019-05-15T23:59:49.639Z,97249.91
